Ishizuchi — 3ESS5 — position and weather

sailwx.info

Track history (hours):
 
Tides and Currents Weather Stations Pressure Air Temp Water Temp Dewpoint Dewpoint Depression Visibility Wind Speed Wind Dir Waves Ship Positions

Ishizuchi

Last reported at 2018-Feb-19 10:54 UTC. Time now 2018-Feb-21 11:48 UTC.
Position N 33°11' E 132°02'.

Length 229 m; draft 8.2 m.

Type: Cargo ship. MMSI: 370410000.

Date/timePositionNaut miles runAvg speedWind from/ knotsBaromVisibWave heightAir tempDewpointWater temp
2018-Feb-19 10:54N 33°11' E 132°02'410.3
2018-Feb-19 10:29N 33°15' E 131°60'3 6.1
2018-Feb-19 10:00N 33°18' E 131°60'611.4
2018-Feb-19 09:27N 33°24' E 132°01'614.1
2018-Feb-19 09:00N 33°29' E 132°07'1014.9
2018-Feb-19 08:22N 33°36' E 132°15'515.2
2018-Feb-19 08:00N 33°39' E 132°19'815.6
2018-Feb-19 07:29N 33°45' E 132°26'815.8
2018-Feb-19 07:00N 33°50' E 132°33'816.3
2018-Feb-19 06:30N 33°56' E 132°40'815.9
2018-Feb-19 06:00N 34°02' E 132°46'  
2018-Feb-16 02:08N 34°09' E 132°58'12 9.4
2018-Feb-16 00:51N 34°02' E 132°46'411.3
2018-Feb-16 00:30N 33°59' E 132°44'612.0
2018-Feb-16 00:00N 33°55' E 132°38'611.6
2018-Feb-15 23:30N 33°51' E 132°34'611.0
2018-Feb-15 22:59N 33°46' E 132°29'611.2
2018-Feb-15 22:28N 33°42' E 132°24'511.0
2018-Feb-15 21:58N 33°39' E 132°19'510.9
2018-Feb-15 21:29N 33°35' E 132°15'811.1
2018-Feb-15 20:45N 33°29' E 132°08'411.5
2018-Feb-15 20:26N 33°26' E 132°05'511.9
2018-Feb-15 20:00N 33°23' E 132°00'610.3
2018-Feb-15 19:26N 33°17' E 132°03'4 9.9
2018-Feb-15 19:00N 33°14' E 132°07'3 5.0
2018-Feb-15 18:30N 33°12' E 132°07'  
Track history (hours):
 
Tides and Currents Weather Stations Pressure Air Temp Water Temp Dewpoint Dewpoint Depression Visibility Wind Speed Wind Dir Waves Ship Positions

Ishizuchi

Last reported at 2018-Feb-19 10:54 UTC. Time now 2018-Feb-21 11:48 UTC.
Position N 33°11' E 132°02'.

Length 229 m; draft 8.2 m.

Type: Cargo ship. MMSI: 370410000.

Date/timePositionNaut miles runAvg speedWind from/ knotsBaromVisibWave heightAir tempDewpointWater temp
2018-Feb-19 10:54N 33°11' E 132°02'410.3
2018-Feb-19 10:29N 33°15' E 131°60'3 6.1
2018-Feb-19 10:00N 33°18' E 131°60'611.4
2018-Feb-19 09:27N 33°24' E 132°01'614.1
2018-Feb-19 09:00N 33°29' E 132°07'1014.9
2018-Feb-19 08:22N 33°36' E 132°15'515.2
2018-Feb-19 08:00N 33°39' E 132°19'815.6
2018-Feb-19 07:29N 33°45' E 132°26'815.8
2018-Feb-19 07:00N 33°50' E 132°33'816.3
2018-Feb-19 06:30N 33°56' E 132°40'815.9
2018-Feb-19 06:00N 34°02' E 132°46'  
2018-Feb-16 02:08N 34°09' E 132°58'12 9.4
2018-Feb-16 00:51N 34°02' E 132°46'411.3
2018-Feb-16 00:30N 33°59' E 132°44'612.0
2018-Feb-16 00:00N 33°55' E 132°38'611.6
2018-Feb-15 23:30N 33°51' E 132°34'611.0
2018-Feb-15 22:59N 33°46' E 132°29'611.2
2018-Feb-15 22:28N 33°42' E 132°24'511.0
2018-Feb-15 21:58N 33°39' E 132°19'510.9
2018-Feb-15 21:29N 33°35' E 132°15'811.1
2018-Feb-15 20:45N 33°29' E 132°08'411.5
2018-Feb-15 20:26N 33°26' E 132°05'511.9
2018-Feb-15 20:00N 33°23' E 132°00'610.3
2018-Feb-15 19:26N 33°17' E 132°03'4 9.9
2018-Feb-15 19:00N 33°14' E 132°07'3 5.0
2018-Feb-15 18:30N 33°12' E 132°07'  

Dump ship's entire track history